Time;durP1;ratioP1;P1;durP2;ratioP2;P2;SDS_P1;SDS_P2;PMS_P1;PMS_P2;Temp;Humidity;BMP_temperature;BMP_pressure;BME280_temperature;BME280_humidity;BME280_pressure;Samples;Min_cycle;Max_cycle;Signal;HPM_P1;HPM_P2
2023/10/17 00:01:18;;;;;;;2.50;1.20;;;21.50;95.40;;;;;;5015777;28;20455;-59
2023/10/17 00:03:46;;;;;;;2.67;1.20;;;21.50;95.40;;;;;;5015800;28;20460;-60
2023/10/17 00:06:16;;;;;;;4.43;1.10;;;21.50;95.40;;;;;;5016205;28;20464;-57
2023/10/17 00:08:43;;;;;;;2.03;1.07;;;21.50;95.40;;;;;;5019141;28;20482;-60
2023/10/17 00:11:21;;;;;;;1.67;1.03;;;21.50;95.40;;;;;;5017773;28;21221;-58
2023/10/17 00:14:11;;;;;;;2.20;1.30;;;21.50;95.40;;;;;;5016776;28;20929;-58
2023/10/17 00:16:38;;;;;;;1.33;1.23;;;21.50;95.40;;;;;;5016853;28;20466;-57
2023/10/17 00:19:04;;;;;;;1.30;1.20;;;21.40;95.30;;;;;;5017268;28;21079;-60
2023/10/17 00:21:32;;;;;;;1.73;1.23;;;21.40;95.40;;;;;;5016062;28;20615;-59
2023/10/17 00:24:01;;;;;;;1.53;1.10;;;21.40;95.40;;;;;;5017076;28;20608;-57
2023/10/17 00:26:30;;;;;;;2.27;1.03;;;21.40;95.40;;;;;;5013756;28;20557;-59
2023/10/17 00:28:58;;;;;;;1.27;0.97;;;21.50;95.50;;;;;;5016227;28;20465;-58
2023/10/17 00:31:25;;;;;;;1.80;1.00;;;21.40;95.50;;;;;;5017167;28;20462;-58
2023/10/17 00:33:57;;;;;;;1.30;0.90;;;21.40;95.50;;;;;;5016757;28;20465;-58
2023/10/17 00:36:26;;;;;;;4.10;1.10;;;21.40;95.50;;;;;;5013322;28;20465;-58
2023/10/17 00:38:54;;;;;;;1.30;1.10;;;21.40;95.50;;;;;;5016913;28;20810;-58
2023/10/17 00:41:29;;;;;;;1.50;1.20;;;21.40;95.50;;;;;;5015956;28;20581;-58
2023/10/17 00:43:57;;;;;;;2.37;1.20;;;21.40;95.50;;;;;;5016916;28;21047;-58
2023/10/17 00:46:25;;;;;;;1.40;1.23;;;21.40;95.50;;;;;;5014591;28;20461;-57
2023/10/17 00:48:56;;;;;;;3.33;1.40;;;21.40;95.50;;;;;;5016075;28;20473;-58
2023/10/17 00:51:23;;;;;;;1.43;0.97;;;21.50;95.60;;;;;;5015335;28;21083;-59
2023/10/17 00:53:51;;;;;;;1.47;1.20;;;21.40;95.50;;;;;;5017657;28;20680;-60
2023/10/17 00:56:18;;;;;;;2.50;1.40;;;21.40;95.60;;;;;;5010924;28;20466;-56
2023/10/17 00:58:45;;;;;;;1.40;1.10;;;21.40;95.60;;;;;;5016390;28;20477;-58
2023/10/17 01:01:15;;;;;;;1.40;1.00;;;21.40;95.60;;;;;;5013332;28;20460;-58
2023/10/17 01:03:45;;;;;;;3.50;1.50;;;21.30;95.50;;;;;;5017008;28;20501;-58
2023/10/17 01:06:35;;;;;;;1.60;1.00;;;21.30;95.60;;;;;;5013945;28;20471;-59
2023/10/17 01:09:17;;;;;;;1.43;1.00;;;21.30;95.60;;;;;;5018945;28;20504;-57
2023/10/17 01:11:45;;;;;;;2.27;1.20;;;21.30;95.60;;;;;;5015385;28;20454;-58
2023/10/17 01:14:18;;;;;;;1.87;1.10;;;21.30;95.60;;;;;;5015391;28;20595;-56
2023/10/17 01:16:46;;;;;;;1.93;1.03;;;21.30;95.60;;;;;;5013081;28;20459;-58
2023/10/17 01:19:19;;;;;;;1.60;1.10;;;21.30;95.70;;;;;;5018197;28;20481;-57
2023/10/17 01:21:46;;;;;;;1.10;0.93;;;21.30;95.70;;;;;;5011135;28;20962;-58
2023/10/17 01:24:14;;;;;;;1.27;1.10;;;21.30;95.70;;;;;;5013528;28;20454;-59
2023/10/17 01:26:44;;;;;;;1.77;1.10;;;21.30;95.70;;;;;;5018081;28;20465;-59
2023/10/17 01:29:12;;;;;;;1.40;1.30;;;21.30;95.70;;;;;;5015220;28;20470;-57
2023/10/17 01:31:42;;;;;;;2.63;1.17;;;21.40;95.80;;;;;;5014228;28;20469;-59
2023/10/17 01:34:09;;;;;;;1.20;1.10;;;21.30;95.70;;;;;;5016074;28;21645;-59
2023/10/17 01:36:36;;;;;;;1.20;0.97;;;21.30;95.80;;;;;;5016168;28;20464;-57
2023/10/17 01:39:05;;;;;;;1.30;1.00;;;21.40;96.20;;;;;;5015332;28;21311;-59
2023/10/17 01:41:34;;;;;;;1.33;0.90;;;21.30;95.80;;;;;;5015125;28;20465;-55
2023/10/17 01:44:02;;;;;;;1.17;0.83;;;21.30;95.80;;;;;;5015936;28;20543;-58
2023/10/17 01:46:29;;;;;;;1.23;1.03;;;21.30;95.80;;;;;;5012733;28;21735;-59
2023/10/17 01:48:56;;;;;;;0.90;0.77;;;21.20;95.80;;;;;;5014632;28;20461;-57
2023/10/17 01:51:24;;;;;;;1.90;1.30;;;21.20;95.80;;;;;;5014442;28;20465;-58
2023/10/17 01:53:51;;;;;;;1.50;1.20;;;21.20;95.80;;;;;;5013467;28;20461;-57
2023/10/17 01:56:20;;;;;;;3.60;1.20;;;21.20;95.80;;;;;;5013700;28;20464;-58
2023/10/17 01:58:50;;;;;;;1.50;1.10;;;21.20;95.80;;;;;;5014094;28;20520;-57
2023/10/17 02:01:18;;;;;;;1.50;1.20;;;21.20;95.90;;;;;;5014750;28;20468;-58
2023/10/17 02:03:45;;;;;;;1.20;1.00;;;21.20;95.90;;;;;;5014388;28;21363;-59
2023/10/17 02:06:16;;;;;;;1.20;1.10;;;21.20;95.90;;;;;;5011172;28;20497;-59
2023/10/17 02:08:43;;;;;;;1.10;0.90;;;21.20;95.90;;;;;;5008633;28;20468;-58
2023/10/17 02:11:14;;;;;;;2.03;1.07;;;21.20;95.90;;;;;;5014956;28;20457;-60
2023/10/17 02:13:45;;;;;;;2.13;1.10;;;21.30;95.90;;;;;;5015849;28;20448;-58
2023/10/17 02:16:13;;;;;;;2.97;1.20;;;21.20;95.90;;;;;;5011840;28;20471;-59
2023/10/17 02:18:40;;;;;;;1.30;1.20;;;21.20;95.90;;;;;;5014455;28;20505;-58
2023/10/17 02:21:07;;;;;;;1.30;1.20;;;21.20;95.90;;;;;;5015301;28;20498;-57
2023/10/17 02:23:48;;;;;;;1.27;1.00;;;21.20;95.90;;;;;;5016407;28;21319;-58
2023/10/17 02:26:16;;;;;;;1.70;1.60;;;21.20;95.90;;;;;;5012848;28;20453;-55
2023/10/17 02:28:46;;;;;;;1.83;1.20;;;21.20;96.00;;;;;;5015183;28;20471;-58
2023/10/17 02:31:15;;;;;;;1.80;1.60;;;21.20;96.00;;;;;;5016190;28;20464;-58
2023/10/17 02:33:42;;;;;;;1.00;0.90;;;21.20;96.00;;;;;;5016970;28;20548;-59
2023/10/17 02:36:12;;;;;;;1.20;1.00;;;21.20;96.00;;;;;;5016229;28;21036;-59
2023/10/17 02:38:40;;;;;;;1.30;1.00;;;21.20;96.00;;;;;;5018114;28;20992;-58
2023/10/17 02:41:08;;;;;;;1.30;1.10;;;21.10;95.90;;;;;;5018882;28;20529;-58
2023/10/17 02:43:40;;;;;;;1.23;1.13;;;21.10;96.00;;;;;;5016880;28;21267;-58
2023/10/17 02:46:07;;;;;;;1.37;1.27;;;21.20;96.10;;;;;;5013593;28;20465;-56
2023/10/17 02:48:42;;;;;;;1.40;1.10;;;21.20;96.10;;;;;;5018228;28;20487;-59
2023/10/17 02:51:18;;;;;;;2.30;1.20;;;21.10;96.10;;;;;;5017742;28;20462;-59
2023/10/17 02:53:44;;;;;;;1.63;1.13;;;21.10;96.10;;;;;;5016318;28;20468;-57
2023/10/17 02:56:20;;;;;;;1.10;0.77;;;21.10;96.10;;;;;;5019595;28;20456;-59
2023/10/17 02:58:50;;;;;;;1.80;1.40;;;21.10;96.10;;;;;;5018381;28;20484;-57
2023/10/17 03:01:18;;;;;;;1.10;0.80;;;21.10;96.10;;;;;;5016950;28;21305;-58
2023/10/17 03:03:50;;;;;;;1.57;1.00;;;21.10;96.10;;;;;;5017313;28;20465;-58
2023/10/17 03:06:18;;;;;;;1.60;1.20;;;21.10;96.20;;;;;;5013315;28;20465;-58
2023/10/17 03:08:49;;;;;;;1.30;1.03;;;21.10;96.10;;;;;;5020162;28;20814;-58
2023/10/17 03:11:17;;;;;;;1.00;0.80;;;21.10;96.20;;;;;;5018749;28;20537;-55
2023/10/17 03:13:45;;;;;;;1.10;0.90;;;21.10;96.20;;;;;;5016761;28;20453;-59
2023/10/17 03:16:16;;;;;;;3.50;1.30;;;21.10;96.20;;;;;;5017412;28;20465;-60
2023/10/17 03:18:45;;;;;;;1.37;0.90;;;21.10;96.10;;;;;;5020749;28;20466;-59
2023/10/17 03:21:12;;;;;;;1.57;1.00;;;21.10;96.20;;;;;;5019022;28;20551;-59
2023/10/17 03:23:46;;;;;;;1.63;1.10;;;21.10;96.20;;;;;;5014341;28;20469;-59
2023/10/17 03:26:13;;;;;;;1.30;1.10;;;21.10;96.20;;;;;;5019934;28;20461;-59
2023/10/17 03:28:40;;;;;;;1.40;1.10;;;21.10;96.20;;;;;;5016860;28;20874;-59
2023/10/17 03:31:10;;;;;;;1.30;1.10;;;21.00;96.20;;;;;;5015671;28;20520;-58
2023/10/17 03:33:40;;;;;;;1.67;1.20;;;21.10;96.30;;;;;;5013225;28;21667;-61
2023/10/17 03:36:34;;;;;;;1.40;1.00;;;21.00;96.30;;;;;;5020507;28;20466;-60
2023/10/17 03:39:02;;;;;;;1.43;1.10;;;21.00;96.30;;;;;;5017271;28;20544;-59
2023/10/17 03:41:29;;;;;;;1.23;0.93;;;21.10;96.40;;;;;;5015372;28;20458;-60
2023/10/17 03:43:56;;;;;;;1.67;0.90;;;21.00;96.30;;;;;;5015844;28;20462;-60
2023/10/17 03:46:25;;;;;;;1.10;0.80;;;21.10;96.40;;;;;;5015513;28;21422;-59
2023/10/17 03:48:57;;;;;;;1.47;1.00;;;21.10;96.40;;;;;;5016370;28;20468;-60
2023/10/17 03:51:24;;;;;;;1.10;0.83;;;21.00;96.30;;;;;;5014503;28;20465;-60
2023/10/17 03:53:53;;;;;;;1.07;0.97;;;21.00;96.40;;;;;;5015129;28;21148;-58
2023/10/17 03:56:24;;;;;;;1.40;0.90;;;21.10;96.40;;;;;;5014237;28;20495;-60
2023/10/17 03:58:54;;;;;;;1.50;1.07;;;21.10;96.40;;;;;;5017232;28;20474;-58
2023/10/17 04:01:23;;;;;;;1.23;1.13;;;21.00;96.40;;;;;;5013102;28;20462;-61
2023/10/17 04:03:54;;;;;;;1.67;1.10;;;21.00;96.40;;;;;;5015607;28;20552;-60
2023/10/17 04:06:26;;;;;;;1.20;1.10;;;21.00;96.40;;;;;;5017222;28;20460;-60
2023/10/17 04:09:15;;;;;;;1.23;1.00;;;21.00;96.40;;;;;;5017348;28;20607;-60
2023/10/17 04:11:45;;;;;;;1.60;1.10;;;21.00;96.40;;;;;;5013891;28;20461;-59
2023/10/17 04:14:12;;;;;;;1.40;1.13;;;21.00;96.40;;;;;;5017740;28;21040;-58
2023/10/17 04:16:39;;;;;;;1.40;0.97;;;21.00;96.40;;;;;;5017465;28;20741;-59
2023/10/17 04:19:07;;;;;;;1.10;0.80;;;21.10;96.50;;;;;;5015569;28;21292;-60
2023/10/17 04:21:38;;;;;;;1.27;0.90;;;21.00;96.50;;;;;;5016525;28;20195;-60
2023/10/17 04:24:06;;;;;;;1.13;0.93;;;21.00;96.50;;;;;;5016451;28;20454;-60
2023/10/17 04:26:34;;;;;;;1.10;1.00;;;21.00;96.50;;;;;;5016399;28;20465;-59
2023/10/17 04:29:12;;;;;;;1.20;0.95;;;21.00;96.60;;;;;;5015282;28;20470;-58
2023/10/17 04:31:39;;;;;;;1.60;0.90;;;21.00;96.60;;;;;;5015205;28;20290;-60
2023/10/17 04:34:07;;;;;;;2.03;1.23;;;21.00;96.60;;;;;;5019507;28;20194;-59
2023/10/17 04:36:37;;;;;;;1.20;1.10;;;21.00;96.60;;;;;;5016165;28;20463;-61
2023/10/17 04:39:11;;;;;;;1.20;0.90;;;21.00;96.70;;;;;;5014522;28;20473;-60
2023/10/17 04:41:48;;;;;;;1.20;0.80;;;21.00;96.60;;;;;;5015436;28;20467;-60
2023/10/17 04:44:20;;;;;;;1.50;1.00;;;21.00;96.70;;;;;;5014378;28;20469;-60
2023/10/17 04:46:50;;;;;;;1.77;1.20;;;21.00;96.70;;;;;;5016798;28;20204;-58
2023/10/17 04:49:18;;;;;;;1.33;1.17;;;21.00;96.70;;;;;;5015510;28;20199;-58
2023/10/17 04:51:52;;;;;;;1.17;0.98;;;21.00;96.70;;;;;;5014913;28;20469;-59
2023/10/17 04:54:22;;;;;;;2.05;1.20;;;21.00;96.70;;;;;;5012302;28;20930;-61
2023/10/17 04:56:59;;;;;;;1.10;0.80;;;21.00;96.80;;;;;;5014135;28;21168;-59
2023/10/17 04:59:41;;;;;;;1.10;0.80;;;20.90;96.70;;;;;;5014721;28;20342;-59
2023/10/17 05:02:35;;;;;;;1.43;1.10;;;21.00;96.70;;;;;;5016227;28;20463;-60
2023/10/17 06:16:53;;;;;;;1.20;0.90;;;20.80;97.10;;;;;;5012630;28;20222;-57
2023/10/17 06:19:24;;;;;;;1.40;0.90;;;20.90;97.20;;;;;;5015461;28;20818;-60
2023/10/17 06:30:29;;;;;;;1.20;1.03;;;20.90;97.40;;;;;;5012242;28;20389;-59
2023/10/17 06:35:46;;;;;;;1.50;0.90;;;20.90;97.50;;;;;;4994748;28;20403;-59
2023/10/17 06:38:16;;;;;;;1.10;0.83;;;20.90;97.50;;;;;;5014926;28;21019;-58
2023/10/17 06:40:46;;;;;;;1.23;1.13;;;20.90;97.70;;;;;;5013361;28;20566;-59
2023/10/17 06:43:27;;;;;;;2.33;0.85;;;20.90;97.70;;;;;;5014311;28;20270;-59
2023/10/17 06:45:55;;;;;;;1.40;1.03;;;20.90;97.80;;;;;;5011351;28;20192;-58
2023/10/17 06:48:31;;;;;;;1.30;0.93;;;20.90;97.80;;;;;;5015313;28;20462;-58
2023/10/17 06:53:47;;;;;;;1.80;1.20;;;21.00;97.60;;;;;;5011698;28;20207;-60
2023/10/17 06:56:13;;;;;;;1.10;1.00;;;21.00;97.60;;;;;;5012873;28;20463;-59
2023/10/17 06:58:41;;;;;;;2.55;1.90;;;21.00;97.50;;;;;;5013076;28;20963;-60
2023/10/17 07:01:19;;;;;;;1.40;0.83;;;21.00;97.50;;;;;;5013887;28;20206;-59
2023/10/17 07:03:46;;;;;;;1.60;1.03;;;21.00;97.50;;;;;;5013536;28;20552;-59
2023/10/17 07:06:13;;;;;;;1.43;1.00;;;21.00;97.50;;;;;;5013113;28;20854;-59
2023/10/17 07:08:41;;;;;;;1.30;1.10;;;21.00;97.50;;;;;;5016228;28;20454;-59
2023/10/17 07:11:24;;;;;;;1.33;0.90;;;21.00;97.50;;;;;;5018181;28;20457;-59
2023/10/17 07:13:55;;;;;;;1.07;0.90;;;21.10;97.50;;;;;;5019866;28;20198;-60
2023/10/17 07:16:26;;;;;;;1.53;0.90;;;21.10;97.40;;;;;;5016994;28;20462;-58
2023/10/17 07:18:53;;;;;;;1.40;1.17;;;21.10;97.50;;;;;;5018937;28;20449;-59
2023/10/17 07:21:23;;;;;;;1.20;1.10;;;21.10;97.40;;;;;;5019894;28;20833;-60
2023/10/17 07:23:53;;;;;;;1.83;1.27;;;21.10;97.40;;;;;;5019358;28;20568;-59
2023/10/17 07:26:38;;;;;;;1.30;1.00;;;21.10;97.40;;;;;;5014285;28;20466;-59
2023/10/17 07:29:06;;;;;;;1.00;0.90;;;21.10;97.30;;;;;;5017901;28;21458;-57
2023/10/17 07:31:33;;;;;;;1.20;1.00;;;21.10;97.40;;;;;;5017950;28;20466;-59
2023/10/17 07:34:16;;;;;;;1.20;1.00;;;21.10;97.30;;;;;;5018766;28;20985;-60
2023/10/17 07:36:44;;;;;;;1.23;1.00;;;21.10;97.30;;;;;;5016869;28;22097;-59
2023/10/17 07:39:22;;;;;;;1.63;0.90;;;21.10;97.30;;;;;;5020326;28;20485;-59
2023/10/17 07:41:54;;;;;;;1.70;1.00;;;21.10;97.20;;;;;;5019225;28;20484;-59
2023/10/17 07:44:21;;;;;;;1.47;1.20;;;21.20;97.30;;;;;;5014998;28;20918;-59
2023/10/17 07:46:50;;;;;;;2.20;1.10;;;21.20;97.30;;;;;;5018519;28;20463;-59
2023/10/17 07:49:25;;;;;;;1.77;1.30;;;21.20;97.30;;;;;;5019278;28;20461;-60
2023/10/17 07:51:52;;;;;;;1.10;0.80;;;21.20;97.20;;;;;;5018458;28;20466;-60
2023/10/17 07:54:19;;;;;;;1.67;1.13;;;21.20;97.20;;;;;;5015624;28;20463;-59
2023/10/17 07:56:50;;;;;;;1.40;1.00;;;21.20;97.20;;;;;;5016472;28;20465;-59
2023/10/17 07:59:24;;;;;;;2.07;1.00;;;21.20;97.20;;;;;;5015102;28;20475;-58
2023/10/17 08:01:58;;;;;;;4.80;1.93;;;21.30;97.30;;;;;;5014756;28;20469;-60
2023/10/17 08:04:29;;;;;;;1.60;1.20;;;21.20;97.30;;;;;;5015607;28;20537;-58
2023/10/17 08:06:56;;;;;;;2.03;1.30;;;21.20;97.30;;;;;;5014215;28;20635;-57
2023/10/17 08:09:25;;;;;;;1.20;0.90;;;21.20;97.30;;;;;;5016845;28;20464;-58
2023/10/17 08:11:53;;;;;;;2.67;1.70;;;21.20;97.40;;;;;;5015798;28;20459;-58
2023/10/17 08:14:26;;;;;;;4.13;1.13;;;21.20;97.40;;;;;;5014971;28;20458;-57
2023/10/17 08:16:55;;;;;;;1.00;0.90;;;21.20;97.50;;;;;;5013326;28;20464;-58
2023/10/17 08:19:22;;;;;;;2.60;1.20;;;21.20;97.50;;;;;;5013010;28;20505;-57
2023/10/17 08:21:58;;;;;;;1.30;1.20;;;21.20;97.60;;;;;;5015231;28;21048;-57
2023/10/17 08:24:33;;;;;;;1.20;1.00;;;21.20;97.50;;;;;;5013703;28;20457;-59
2023/10/17 08:27:18;;;;;;;1.60;1.30;;;21.20;97.50;;;;;;5014547;28;20461;-58
2023/10/17 08:29:49;;;;;;;1.73;1.00;;;21.30;97.60;;;;;;5015097;28;21009;-56
2023/10/17 08:32:38;;;;;;;1.40;0.97;;;21.30;97.50;;;;;;5015959;28;21463;-59
2023/10/17 08:35:08;;;;;;;2.07;1.20;;;21.30;97.60;;;;;;5014337;28;20499;-58
2023/10/17 08:37:43;;;;;;;1.20;1.00;;;21.30;97.50;;;;;;5015048;28;20461;-58
2023/10/17 08:42:52;;;;;;;1.60;0.90;;;21.30;97.50;;;;;;5017696;28;20535;-57
2023/10/17 08:45:20;;;;;;;3.80;0.97;;;21.30;97.40;;;;;;5016178;28;21389;-58
2023/10/17 08:47:47;;;;;;;1.53;0.90;;;21.40;97.60;;;;;;5015212;28;20458;-59
2023/10/17 08:50:15;;;;;;;1.73;1.13;;;21.40;97.40;;;;;;5013274;28;20473;-58
2023/10/17 08:52:44;;;;;;;1.77;0.90;;;21.40;97.40;;;;;;5015899;28;20466;-57
2023/10/17 08:55:15;;;;;;;3.50;1.10;;;21.40;97.40;;;;;;5016479;28;20551;-58
2023/10/17 08:57:42;;;;;;;1.30;1.00;;;21.40;97.40;;;;;;5015789;28;21010;-58
2023/10/17 09:00:24;;;;;;;1.13;1.00;;;21.40;97.30;;;;;;5017043;28;20485;-60
2023/10/17 09:03:01;;;;;;;2.20;1.23;;;21.40;97.30;;;;;;5015559;28;20480;-59
2023/10/17 09:05:29;;;;;;;1.97;1.00;;;21.50;97.30;;;;;;5014172;28;20500;-58
2023/10/17 09:08:02;;;;;;;2.07;1.20;;;21.40;97.20;;;;;;5016232;28;20573;-59
2023/10/17 09:10:36;;;;;;;1.63;0.90;;;21.40;97.50;;;;;;5013397;28;20462;-58
2023/10/17 09:13:52;;;;;;;1.37;1.13;;;21.50;97.30;;;;;;5015286;28;20908;-58
2023/10/17 09:16:10;;;;;;;2.13;1.20;;;21.40;97.10;;;;;;5014822;28;22576;-55
2023/10/17 09:18:42;;;;;;;1.27;1.00;;;21.40;97.00;;;;;;5015998;28;21423;-58
2023/10/17 09:21:09;;;;;;;1.63;0.90;;;21.40;97.00;;;;;;5015809;28;20471;-56
2023/10/17 09:23:38;;;;;;;2.77;2.57;;;21.40;96.90;;;;;;5011325;28;20590;-58
2023/10/17 09:26:10;;;;;;;3.77;2.87;;;21.40;96.30;;;;;;5015944;28;20670;-57
2023/10/17 09:28:37;;;;;;;3.93;3.10;;;21.40;95.30;;;;;;5014689;28;20450;-61
2023/10/17 09:31:07;;;;;;;2.63;2.43;;;21.40;94.80;;;;;;5015554;28;20493;-60
2023/10/17 09:33:35;;;;;;;5.87;2.57;;;21.30;94.50;;;;;;5015640;28;20470;-58
2023/10/17 09:36:05;;;;;;;3.70;2.60;;;21.30;94.30;;;;;;5014907;28;20458;-58
2023/10/17 09:38:32;;;;;;;5.93;2.43;;;21.30;94.30;;;;;;5013252;28;20462;-58
2023/10/17 09:41:00;;;;;;;3.30;2.20;;;21.30;94.50;;;;;;5015301;28;20477;-58
2023/10/17 09:43:27;;;;;;;4.00;2.67;;;21.30;94.30;;;;;;5013429;28;21009;-57
2023/10/17 09:45:56;;;;;;;3.83;2.73;;;21.30;94.20;;;;;;5014456;28;20466;-58
2023/10/17 09:48:33;;;;;;;4.00;1.80;;;21.30;94.50;;;;;;5014848;28;21426;-59
2023/10/17 09:51:03;;;;;;;4.50;1.80;;;21.30;94.50;;;;;;5014474;28;20465;-58
2023/10/17 09:53:32;;;;;;;2.70;2.03;;;21.30;94.70;;;;;;5013995;28;20469;-56
2023/10/17 09:56:03;;;;;;;2.80;1.80;;;21.30;94.70;;;;;;5010354;28;20473;-58
2023/10/17 09:58:33;;;;;;;3.70;1.80;;;21.30;94.80;;;;;;5011363;28;21512;-54
2023/10/17 10:01:05;;;;;;;1.90;1.70;;;21.30;95.00;;;;;;5007979;28;21029;-57
2023/10/17 10:03:35;;;;;;;5.60;1.73;;;21.30;95.00;;;;;;5011827;28;20477;-57
2023/10/17 10:06:25;;;;;;;1.70;1.43;;;21.30;95.10;;;;;;5015974;28;21363;-58
2023/10/17 10:08:56;;;;;;;3.60;1.73;;;21.30;95.20;;;;;;5011672;28;20479;-55
2023/10/17 10:11:55;;;;;;;4.37;1.80;;;21.30;95.10;;;;;;5014642;28;20607;-57
2023/10/17 10:14:39;;;;;;;2.37;1.70;;;21.30;95.20;;;;;;5014386;28;20572;-57
2023/10/17 10:17:08;;;;;;;2.47;1.50;;;21.30;95.20;;;;;;5014154;28;20466;-57
2023/10/17 10:19:59;;;;;;;5.47;1.73;;;21.30;95.10;;;;;;5010763;28;20461;-56
2023/10/17 10:22:54;;;;;;;2.83;1.50;;;21.30;95.30;;;;;;5013943;28;20603;-54
2023/10/17 10:25:22;;;;;;;2.10;1.60;;;21.30;95.30;;;;;;5012244;28;20465;-61
2023/10/17 10:28:09;;;;;;;1.77;1.40;;;21.30;95.20;;;;;;5008801;28;20469;-60
2023/10/17 10:30:43;;;;;;;4.87;1.63;;;21.30;95.40;;;;;;5008071;28;20467;-57
2023/10/17 10:33:11;;;;;;;3.80;2.53;;;21.40;95.50;;;;;;5012751;28;20464;-57
2023/10/17 10:35:45;;;;;;;4.17;2.07;;;21.40;95.60;;;;;;5009114;28;20549;-60
2023/10/17 10:38:13;;;;;;;2.33;1.70;;;21.40;95.70;;;;;;5012433;28;20603;-60
2023/10/17 10:40:40;;;;;;;4.60;1.50;;;21.40;95.80;;;;;;5010025;28;20557;-59
2023/10/17 10:43:11;;;;;;;2.27;1.20;;;21.40;95.80;;;;;;5013703;28;20843;-61
2023/10/17 10:45:47;;;;;;;4.20;1.50;;;21.50;96.00;;;;;;5014906;28;20514;-58
2023/10/17 10:48:15;;;;;;;7.17;1.50;;;21.50;96.00;;;;;;5018315;28;20607;-60
2023/10/17 10:50:43;;;;;;;3.27;1.37;;;21.50;96.20;;;;;;5009901;28;20469;-59
2023/10/17 10:53:22;;;;;;;2.20;1.50;;;21.50;96.20;;;;;;5017966;28;20466;-60
2023/10/17 10:55:55;;;;;;;2.90;1.53;;;21.60;96.30;;;;;;5016313;28;20462;-61
2023/10/17 10:58:22;;;;;;;3.63;1.37;;;21.60;96.40;;;;;;5017908;28;21181;-59
2023/10/17 11:00:49;;;;;;;2.00;1.80;;;21.60;96.40;;;;;;5011057;28;21542;-60
2023/10/17 11:03:17;;;;;;;4.03;1.37;;;21.60;96.40;;;;;;5015916;28;20595;-60
2023/10/17 11:05:58;;;;;;;4.03;1.70;;;21.70;96.50;;;;;;5015151;28;20966;-57
2023/10/17 11:08:35;;;;;;;3.40;1.50;;;21.70;96.50;;;;;;5021206;28;20573;-58
2023/10/17 11:11:03;;;;;;;4.23;1.63;;;21.70;96.50;;;;;;5019371;28;20545;-58
2023/10/17 11:13:34;;;;;;;3.93;1.53;;;21.70;96.50;;;;;;5017719;28;20481;-57
2023/10/17 11:16:01;;;;;;;2.07;1.53;;;21.70;96.40;;;;;;5017848;28;20544;-59
2023/10/17 11:18:29;;;;;;;2.30;1.50;;;21.70;96.40;;;;;;5017511;28;20458;-58
2023/10/17 11:20:56;;;;;;;1.50;1.10;;;21.70;96.50;;;;;;5015337;28;20604;-57
2023/10/17 11:23:26;;;;;;;2.17;1.40;;;21.80;96.50;;;;;;5017646;28;20454;-60
2023/10/17 11:25:56;;;;;;;3.10;1.03;;;21.80;96.40;;;;;;5018785;28;20462;-60
2023/10/17 11:28:23;;;;;;;3.53;1.30;;;21.80;96.40;;;;;;5016670;28;20492;-61
2023/10/17 11:30:50;;;;;;;1.70;1.20;;;21.80;96.40;;;;;;5016194;28;20465;-60
2023/10/17 11:33:18;;;;;;;2.60;1.67;;;21.80;96.40;;;;;;5014772;28;20475;-59
2023/10/17 11:35:49;;;;;;;2.17;1.40;;;21.80;96.40;;;;;;5013221;28;20469;-56
2023/10/17 11:38:33;;;;;;;2.30;1.23;;;21.90;96.50;;;;;;5016622;28;20462;-61
2023/10/17 11:41:02;;;;;;;1.63;1.50;;;21.90;96.60;;;;;;5019400;28;20503;-62
2023/10/17 11:43:34;;;;;;;1.40;1.20;;;21.90;96.50;;;;;;5014241;28;22537;-60
2023/10/17 11:46:02;;;;;;;1.50;1.40;;;21.90;96.40;;;;;;5018088;28;21339;-61
2023/10/17 11:48:31;;;;;;;1.70;1.10;;;21.90;96.00;;;;;;5014752;28;20493;-61
2023/10/17 11:51:12;;;;;;;1.40;1.20;;;21.90;96.10;;;;;;5013133;28;20461;-61
2023/10/17 11:54:07;;;;;;;3.87;1.70;;;21.90;94.70;;;;;;5011872;28;20470;-62
2023/10/17 11:56:37;;;;;;;2.40;1.23;;;21.90;94.90;;;;;;5018433;28;20988;-61
2023/10/17 11:59:07;;;;;;;2.40;1.23;;;21.90;95.20;;;;;;5015663;28;21457;-60
2023/10/17 12:01:34;;;;;;;2.20;1.53;;;21.90;95.20;;;;;;5015612;28;20488;-58
2023/10/17 12:04:06;;;;;;;6.40;1.67;;;22.00;95.10;;;;;;5017884;28;21312;-61
2023/10/17 12:06:34;;;;;;;1.63;1.53;;;22.00;95.20;;;;;;5017650;28;20468;-58
2023/10/17 12:09:17;;;;;;;4.50;1.20;;;22.00;95.00;;;;;;5016797;28;20466;-60
2023/10/17 12:11:46;;;;;;;2.23;1.67;;;22.00;95.00;;;;;;5012143;28;20473;-62
2023/10/17 12:14:19;;;;;;;2.10;1.07;;;22.00;95.10;;;;;;5014656;28;20612;-59
2023/10/17 12:16:47;;;;;;;1.73;1.47;;;22.00;95.10;;;;;;5014255;28;20463;-60
2023/10/17 12:19:16;;;;;;;1.90;1.50;;;22.00;95.40;;;;;;5016316;28;20470;-61
2023/10/17 12:21:47;;;;;;;3.50;1.43;;;22.00;95.40;;;;;;5012120;28;20488;-61
2023/10/17 12:24:19;;;;;;;1.60;1.27;;;22.10;95.40;;;;;;5012518;28;20455;-60
2023/10/17 12:26:49;;;;;;;1.43;1.33;;;22.10;95.30;;;;;;5014961;28;20464;-60
2023/10/17 12:29:16;;;;;;;3.37;1.60;;;22.10;95.20;;;;;;5014562;28;20485;-61
2023/10/17 12:31:43;;;;;;;8.17;1.40;;;22.10;95.20;;;;;;5010147;28;20473;-61
2023/10/17 12:34:10;;;;;;;2.60;1.43;;;22.10;95.20;;;;;;5014076;28;20473;-58
2023/10/17 12:36:37;;;;;;;1.90;1.37;;;22.20;95.10;;;;;;5014139;28;20463;-60
2023/10/17 12:39:06;;;;;;;4.03;1.87;;;22.20;95.20;;;;;;5015341;28;20474;-61
2023/10/17 12:41:33;;;;;;;4.17;1.40;;;22.10;95.30;;;;;;5015405;28;20623;-59
2023/10/17 12:44:03;;;;;;;9.13;1.67;;;22.20;95.40;;;;;;5012646;28;20466;-57
2023/10/17 12:46:30;;;;;;;1.60;1.20;;;22.20;95.40;;;;;;5011055;28;20461;-57
2023/10/17 12:48:58;;;;;;;2.50;1.30;;;22.20;95.40;;;;;;5015864;28;20457;-57
2023/10/17 12:51:24;;;;;;;6.50;1.97;;;22.20;95.50;;;;;;5014325;28;20466;-59
2023/10/17 12:53:52;;;;;;;1.50;1.20;;;22.20;95.60;;;;;;5010333;28;20458;-56
2023/10/17 12:56:20;;;;;;;3.13;1.30;;;22.20;95.70;;;;;;5012523;28;20549;-60
2023/10/17 12:58:46;;;;;;;1.80;1.40;;;22.20;96.00;;;;;;5012730;28;20475;-61
2023/10/17 13:01:14;;;;;;;3.07;1.60;;;22.20;96.50;;;;;;5012572;28;20509;-56
2023/10/17 13:03:41;;;;;;;8.53;1.30;;;22.20;96.70;;;;;;5015615;28;20789;-62
2023/10/17 13:06:09;;;;;;;2.10;1.40;;;22.20;96.30;;;;;;5016330;28;20457;-60
2023/10/17 13:08:35;;;;;;;2.30;2.00;;;22.20;96.50;;;;;;5011948;28;20483;-61
2023/10/17 13:11:03;;;;;;;5.40;1.73;;;22.30;96.90;;;;;;5012287;28;20467;-58
2023/10/17 13:13:30;;;;;;;2.80;1.47;;;22.30;97.00;;;;;;5015028;28;20469;-60
2023/10/17 13:15:57;;;;;;;2.67;1.50;;;22.30;97.10;;;;;;5014853;28;20631;-59
2023/10/17 13:18:27;;;;;;;3.10;2.03;;;22.30;97.40;;;;;;5016227;28;20476;-62
2023/10/17 13:20:58;;;;;;;3.37;1.37;;;22.30;97.60;;;;;;5013860;28;20489;-61
2023/10/17 13:23:25;;;;;;;1.90;1.60;;;22.30;97.50;;;;;;5015568;28;20504;-59
2023/10/17 13:25:53;;;;;;;1.83;1.53;;;22.30;97.50;;;;;;5011628;28;20924;-58
2023/10/17 13:28:20;;;;;;;6.13;1.20;;;22.30;97.60;;;;;;5014767;28;20466;-59
2023/10/17 13:30:47;;;;;;;9.63;1.60;;;22.30;97.20;;;;;;5008551;28;20464;-59
2023/10/17 13:33:14;;;;;;;45.57;2.20;;;22.30;97.00;;;;;;5013811;28;20470;-58
2023/10/17 13:35:42;;;;;;;3.00;1.60;;;22.30;97.10;;;;;;5008837;28;20465;-59
2023/10/17 13:38:09;;;;;;;4.57;1.60;;;22.30;97.10;;;;;;5013345;28;20458;-59
2023/10/17 13:40:36;;;;;;;4.77;1.90;;;22.30;97.20;;;;;;5011377;28;20458;-60
2023/10/17 13:43:04;;;;;;;2.87;1.47;;;22.30;97.30;;;;;;5013301;28;20489;-59
2023/10/17 13:45:35;;;;;;;3.03;1.37;;;22.30;97.50;;;;;;5010291;28;20490;-59
2023/10/17 13:48:02;;;;;;;1.90;1.30;;;22.30;97.70;;;;;;5007442;28;20446;-58
2023/10/17 13:50:28;;;;;;;2.20;1.40;;;22.30;97.90;;;;;;5006376;28;20546;-58
2023/10/17 13:53:06;;;;;;;4.03;1.53;;;22.30;98.00;;;;;;5007477;28;21259;-57
2023/10/17 13:55:35;;;;;;;4.10;1.43;;;22.30;98.20;;;;;;5005732;28;20642;-58
2023/10/17 13:58:02;;;;;;;3.53;1.60;;;22.30;98.50;;;;;;5014361;28;20465;-59
2023/10/17 14:00:36;;;;;;;5.67;1.40;;;22.30;98.50;;;;;;5012941;28;20470;-60
2023/10/17 14:03:06;;;;;;;2.97;1.57;;;22.30;98.40;;;;;;5013580;28;20485;-60
2023/10/17 14:05:33;;;;;;;1.60;1.37;;;22.30;98.40;;;;;;5013501;28;20465;-61
2023/10/17 14:08:01;;;;;;;1.70;1.60;;;22.30;98.60;;;;;;5011635;28;20453;-57
2023/10/17 14:10:28;;;;;;;4.23;1.77;;;22.30;98.90;;;;;;5014690;28;20458;-58
2023/10/17 14:12:57;;;;;;;4.93;1.57;;;22.30;98.90;;;;;;5013954;28;20457;-59
2023/10/17 14:15:24;;;;;;;5.90;1.90;;;22.30;98.90;;;;;;5012119;28;20473;-55
2023/10/17 14:17:53;;;;;;;3.40;1.77;;;22.30;99.10;;;;;;5015200;28;21040;-58
2023/10/17 14:20:38;;;;;;;3.20;2.03;;;22.30;99.20;;;;;;5014542;28;20458;-58
2023/10/17 14:23:12;;;;;;;2.13;1.43;;;22.30;99.80;;;;;;5018367;28;20485;-58
2023/10/17 14:28:21;;;;;;;1.87;1.50;;;22.30;99.50;;;;;;5001045;28;20457;-59
2023/10/17 14:30:47;;;;;;;2.20;1.33;;;22.40;99.40;;;;;;5016779;28;20548;-58
2023/10/17 14:33:14;;;;;;;3.83;1.40;;;22.30;99.20;;;;;;5017793;28;20541;-58
2023/10/17 14:35:43;;;;;;;2.47;1.70;;;22.30;99.00;;;;;;5017360;28;20462;-57
2023/10/17 14:38:11;;;;;;;2.00;1.50;;;22.30;99.00;;;;;;5015460;28;20466;-57